Time;durP1;ratioP1;P1;durP2;ratioP2;P2;SDS_P1;SDS_P2;PMS_P1;PMS_P2;Temp;Humidity;BMP_temperature;BMP_pressure;BME280_temperature;BME280_humidity;BME280_pressure;Samples;Min_cycle;Max_cycle;Signal;HPM_P1;HPM_P2
2023/05/23 00:01:46;;;;;;;8.75;4.20;;;20.00;99.90;;;;;;5053136;28;20217;-76
2023/05/23 00:04:16;;;;;;;5.43;4.00;;;20.00;99.90;;;;;;5051964;28;20269;-76
2023/05/23 00:06:45;;;;;;;7.65;4.20;;;20.00;99.90;;;;;;5052041;28;20226;-77
2023/05/23 00:09:15;;;;;;;8.80;4.63;;;20.00;99.90;;;;;;5033836;28;20180;-77
2023/05/23 00:11:44;;;;;;;7.53;4.00;;;20.00;99.90;;;;;;5052868;28;20635;-77
2023/05/23 00:14:14;;;;;;;7.00;4.15;;;19.90;99.90;;;;;;5033779;28;20640;-78
2023/05/23 00:16:41;;;;;;;6.25;4.18;;;19.90;99.90;;;;;;5035079;28;20256;-77
2023/05/23 00:19:07;;;;;;;7.57;3.88;;;19.90;99.90;;;;;;5032050;28;20575;-77
2023/05/23 00:21:33;;;;;;;6.78;3.83;;;19.90;99.90;;;;;;5043350;28;20692;-76
2023/05/23 00:24:01;;;;;;;7.82;3.85;;;19.90;99.90;;;;;;5031563;28;20279;-76
2023/05/23 00:26:28;;;;;;;5.15;3.78;;;20.00;99.90;;;;;;5044185;28;20214;-76
2023/05/23 00:28:55;;;;;;;7.53;4.15;;;19.80;99.90;;;;;;5045784;28;20200;-77
2023/05/23 00:31:21;;;;;;;7.03;4.10;;;19.80;99.90;;;;;;5049947;28;20208;-77
2023/05/23 00:33:46;;;;;;;4.70;3.75;;;19.80;99.90;;;;;;5045141;28;20208;-76
2023/05/23 00:36:12;;;;;;;6.32;3.90;;;19.70;99.90;;;;;;5027008;28;20187;-76
2023/05/23 00:38:38;;;;;;;6.82;4.07;;;19.70;99.90;;;;;;5042715;28;20659;-75
2023/05/23 00:41:04;;;;;;;6.13;4.07;;;19.70;99.90;;;;;;5034985;28;20210;-76
2023/05/23 00:43:30;;;;;;;6.88;3.80;;;19.60;99.90;;;;;;5051109;28;20317;-75
2023/05/23 00:45:57;;;;;;;6.80;3.72;;;19.60;99.90;;;;;;5051306;28;20223;-75
2023/05/23 00:48:24;;;;;;;8.02;4.45;;;19.60;99.90;;;;;;5034295;28;20200;-76
2023/05/23 00:50:50;;;;;;;5.55;3.80;;;19.50;99.90;;;;;;5050026;28;20259;-76
2023/05/23 00:53:16;;;;;;;4.07;3.67;;;19.50;99.90;;;;;;5049217;28;20303;-77
2023/05/23 00:55:43;;;;;;;5.22;4.25;;;19.50;99.90;;;;;;5041782;28;20594;-77
2023/05/23 00:58:09;;;;;;;12.43;4.57;;;19.50;99.90;;;;;;5048966;28;20261;-75
2023/05/23 01:00:37;;;;;;;4.72;4.00;;;19.50;99.90;;;;;;5044111;28;20218;-75
2023/05/23 01:03:03;;;;;;;7.65;4.32;;;19.40;99.90;;;;;;5050005;28;20195;-74
2023/05/23 01:05:29;;;;;;;7.47;3.83;;;19.30;99.90;;;;;;5044970;28;20623;-76
2023/05/23 01:07:55;;;;;;;11.38;4.57;;;19.30;99.90;;;;;;5045507;28;20234;-76
2023/05/23 01:10:24;;;;;;;5.88;4.68;;;19.20;99.90;;;;;;5047947;28;20705;-76
2023/05/23 01:13:08;;;;;;;6.78;4.18;;;19.20;99.90;;;;;;5044076;28;20215;-76
2023/05/23 01:15:46;;;;;;;9.20;4.88;;;19.20;99.90;;;;;;5046276;28;20537;-75
2023/05/23 01:18:16;;;;;;;8.70;4.35;;;19.20;99.90;;;;;;5047108;28;20671;-76
2023/05/23 01:20:52;;;;;;;5.63;4.45;;;19.20;99.90;;;;;;5028876;28;20183;-75
2023/05/23 01:23:43;;;;;;;8.88;4.97;;;19.20;99.90;;;;;;5032869;28;20227;-75
2023/05/23 01:26:50;;;;;;;9.45;4.85;;;19.30;99.90;;;;;;5044869;28;20204;-75
2023/05/23 01:29:28;;;;;;;4.63;3.80;;;19.20;99.90;;;;;;4990003;28;20209;-76
2023/05/23 01:31:56;;;;;;;5.68;4.38;;;19.30;99.90;;;;;;4989928;28;20206;-76
2023/05/23 01:34:21;;;;;;;6.18;3.92;;;19.20;99.90;;;;;;5002378;28;20687;-76
2023/05/23 01:36:53;;;;;;;5.05;3.72;;;19.10;99.90;;;;;;5048312;28;20216;-76
2023/05/23 01:39:18;;;;;;;7.13;4.25;;;19.10;99.90;;;;;;5049887;28;20739;-76
2023/05/23 01:41:44;;;;;;;6.00;4.22;;;19.20;99.90;;;;;;5046192;28;20181;-75
2023/05/23 01:44:10;;;;;;;6.32;3.70;;;19.30;99.90;;;;;;5046486;28;20219;-76
2023/05/23 01:46:38;;;;;;;10.10;4.70;;;19.30;99.90;;;;;;5046492;28;20215;-74
2023/05/23 01:49:08;;;;;;;7.72;4.50;;;19.30;99.90;;;;;;5028393;28;20208;-76
2023/05/23 01:51:34;;;;;;;6.68;4.05;;;19.40;99.90;;;;;;5041051;28;20692;-74
2023/05/23 01:53:59;;;;;;;6.90;4.45;;;19.50;99.90;;;;;;5043863;28;20179;-76
2023/05/23 01:56:27;;;;;;;8.43;4.22;;;19.40;99.90;;;;;;5026735;28;20703;-76
2023/05/23 01:58:53;;;;;;;10.32;5.05;;;19.40;99.90;;;;;;5043823;28;20261;-77
2023/05/23 02:01:19;;;;;;;7.13;4.50;;;19.30;99.90;;;;;;5033588;28;20212;-76
2023/05/23 02:03:45;;;;;;;7.60;4.38;;;19.30;99.90;;;;;;5050142;28;20598;-76
2023/05/23 02:06:10;;;;;;;7.15;4.57;;;19.30;99.90;;;;;;5050129;28;20176;-76
2023/05/23 02:08:36;;;;;;;6.60;4.18;;;19.30;99.90;;;;;;5031327;28;20282;-75
2023/05/23 02:11:02;;;;;;;6.55;4.47;;;19.40;99.90;;;;;;5049519;28;20238;-76
2023/05/23 02:13:27;;;;;;;6.35;4.15;;;19.40;99.90;;;;;;5047605;28;20215;-77
2023/05/23 02:15:53;;;;;;;4.93;3.70;;;19.30;99.90;;;;;;5049130;28;20235;-76
2023/05/23 02:18:19;;;;;;;7.18;4.10;;;19.30;99.90;;;;;;5037528;28;20198;-77
2023/05/23 02:20:45;;;;;;;6.20;4.30;;;19.30;99.90;;;;;;5023819;28;20589;-77
2023/05/23 02:23:11;;;;;;;7.97;4.50;;;19.30;99.90;;;;;;5030160;28;20204;-76
2023/05/23 02:25:37;;;;;;;6.88;4.78;;;19.30;99.90;;;;;;5042937;28;20220;-75
2023/05/23 02:28:02;;;;;;;9.20;6.13;;;19.40;99.90;;;;;;5045454;28;20233;-76
2023/05/23 02:30:28;;;;;;;6.07;4.10;;;19.30;99.90;;;;;;5042550;28;20176;-76
2023/05/23 02:32:54;;;;;;;6.50;4.32;;;19.30;99.90;;;;;;5043257;28;20193;-76
2023/05/23 02:35:20;;;;;;;5.45;4.22;;;19.20;99.90;;;;;;5040003;28;20200;-76
2023/05/23 02:37:45;;;;;;;4.95;4.25;;;19.10;99.90;;;;;;5040942;28;20350;-76
2023/05/23 02:40:11;;;;;;;7.35;4.82;;;19.10;99.90;;;;;;5046647;28;20203;-76
2023/05/23 02:42:36;;;;;;;6.10;4.10;;;19.10;99.90;;;;;;5031962;28;20571;-75
2023/05/23 02:45:02;;;;;;;5.88;4.50;;;19.10;99.90;;;;;;5031922;28;20678;-76
2023/05/23 02:47:28;;;;;;;6.63;4.47;;;19.10;99.90;;;;;;5031282;28;20203;-76
2023/05/23 02:49:54;;;;;;;6.32;4.40;;;19.20;99.90;;;;;;5047114;28;20199;-75
2023/05/23 02:52:19;;;;;;;7.90;4.90;;;19.30;99.90;;;;;;5030268;28;20260;-76
2023/05/23 02:54:45;;;;;;;6.93;4.40;;;19.40;99.90;;;;;;5045140;28;20321;-76
2023/05/23 02:57:11;;;;;;;7.18;4.30;;;19.30;99.90;;;;;;5046831;28;20199;-76
2023/05/23 02:59:36;;;;;;;6.28;3.80;;;19.40;99.90;;;;;;5040251;28;20262;-74
2023/05/23 03:02:02;;;;;;;6.38;4.65;;;19.40;99.90;;;;;;5027692;28;20202;-76
2023/05/23 03:04:28;;;;;;;7.38;5.05;;;19.40;99.90;;;;;;5039396;28;20633;-76
2023/05/23 03:06:54;;;;;;;5.90;4.43;;;19.20;99.90;;;;;;5037499;28;20223;-75
2023/05/23 03:09:20;;;;;;;11.25;4.55;;;19.10;99.90;;;;;;5029316;28;20187;-77
2023/05/23 03:11:45;;;;;;;7.32;5.22;;;19.10;99.90;;;;;;5043774;28;20613;-76
2023/05/23 03:14:11;;;;;;;8.68;4.80;;;19.00;99.90;;;;;;5042063;28;20287;-76
2023/05/23 03:16:37;;;;;;;7.70;4.32;;;19.00;99.90;;;;;;5043637;28;20200;-76
2023/05/23 03:19:03;;;;;;;11.63;5.00;;;19.10;99.90;;;;;;5041723;28;20207;-76
2023/05/23 03:21:30;;;;;;;11.40;5.03;;;19.10;99.90;;;;;;5049026;28;20229;-76
2023/05/23 03:23:56;;;;;;;7.30;5.32;;;18.90;99.90;;;;;;5027538;28;20631;-75
2023/05/23 03:26:22;;;;;;;8.63;5.00;;;18.90;99.90;;;;;;5030548;28;20200;-75
2023/05/23 03:28:48;;;;;;;6.97;5.05;;;18.90;99.90;;;;;;5046575;28;20207;-75
2023/05/23 03:31:14;;;;;;;10.45;6.03;;;18.90;99.90;;;;;;5026711;28;20211;-76
2023/05/23 03:33:40;;;;;;;12.85;5.05;;;18.90;99.90;;;;;;5037204;28;20282;-77
2023/05/23 03:36:06;;;;;;;9.27;4.95;;;18.80;99.90;;;;;;5028619;28;20221;-75
2023/05/23 03:38:31;;;;;;;6.03;5.28;;;18.70;99.90;;;;;;5044458;28;20199;-76
2023/05/23 03:40:57;;;;;;;6.53;4.85;;;18.70;99.90;;;;;;5043854;28;20259;-76
2023/05/23 03:43:22;;;;;;;10.35;5.25;;;18.60;99.90;;;;;;5043162;28;20684;-76
2023/05/23 03:45:48;;;;;;;6.30;4.90;;;18.60;99.90;;;;;;5041502;28;20204;-76
2023/05/23 03:48:14;;;;;;;8.77;5.47;;;18.60;99.90;;;;;;5027634;28;20192;-76
2023/05/23 03:50:40;;;;;;;9.70;5.80;;;18.60;99.90;;;;;;5025055;28;20169;-73
2023/05/23 03:53:06;;;;;;;8.23;5.78;;;18.60;99.90;;;;;;5044743;28;20226;-75
2023/05/23 03:55:32;;;;;;;8.20;5.30;;;18.60;99.90;;;;;;5021258;28;20575;-76
2023/05/23 03:57:57;;;;;;;8.07;5.90;;;18.60;99.90;;;;;;5047789;28;20503;-75
2023/05/23 04:00:23;;;;;;;7.57;5.32;;;18.60;99.90;;;;;;5048872;28;20660;-76
2023/05/23 04:02:50;;;;;;;8.05;5.70;;;18.50;99.90;;;;;;5047367;28;20654;-75
2023/05/23 04:05:16;;;;;;;7.25;5.38;;;18.50;99.90;;;;;;5029569;28;20222;-76
2023/05/23 04:07:42;;;;;;;8.73;5.90;;;18.50;99.90;;;;;;5045657;28;20592;-74
2023/05/23 04:10:08;;;;;;;8.55;5.30;;;18.50;99.90;;;;;;5026570;28;20223;-76
2023/05/23 04:12:34;;;;;;;9.73;5.60;;;18.50;99.90;;;;;;5036306;28;20689;-76
2023/05/23 04:15:00;;;;;;;11.50;5.88;;;18.60;99.90;;;;;;5036831;28;20180;-76
2023/05/23 04:17:29;;;;;;;6.82;4.95;;;18.60;99.90;;;;;;5037078;28;20253;-76
2023/05/23 04:19:55;;;;;;;7.45;5.05;;;18.70;99.90;;;;;;5044340;28;20617;-76
2023/05/23 04:22:21;;;;;;;5.43;4.88;;;18.80;99.90;;;;;;5036757;28;20204;-76
2023/05/23 04:24:46;;;;;;;7.68;5.70;;;18.90;99.90;;;;;;5042988;28;20311;-76
2023/05/23 04:27:12;;;;;;;9.15;5.38;;;18.90;99.90;;;;;;5042987;28;20572;-76
2023/05/23 04:29:38;;;;;;;10.07;5.20;;;19.00;99.90;;;;;;5039859;28;20223;-75
2023/05/23 04:32:07;;;;;;;8.02;5.38;;;18.80;99.90;;;;;;5043075;28;20815;-76
2023/05/23 04:34:33;;;;;;;9.25;6.03;;;18.70;99.90;;;;;;5038461;28;20231;-76
2023/05/23 04:37:01;;;;;;;8.77;5.82;;;18.70;99.90;;;;;;5047943;28;20250;-75
2023/05/23 04:39:28;;;;;;;10.18;5.15;;;18.70;99.90;;;;;;5048663;28;20199;-76
2023/05/23 04:41:55;;;;;;;11.23;5.25;;;18.80;99.90;;;;;;5047878;28;20171;-75
2023/05/23 04:44:21;;;;;;;6.45;5.07;;;18.80;99.90;;;;;;5033441;28;20265;-76
2023/05/23 04:46:47;;;;;;;10.20;5.68;;;18.90;99.90;;;;;;5032282;28;20220;-75
2023/05/23 04:49:13;;;;;;;5.90;4.55;;;18.80;99.90;;;;;;5050092;28;20280;-75
2023/05/23 04:51:38;;;;;;;7.78;5.38;;;18.80;99.90;;;;;;5048194;28;20735;-75
2023/05/23 04:54:04;;;;;;;10.70;5.68;;;18.80;99.90;;;;;;5030123;28;20262;-75
2023/05/23 04:56:30;;;;;;;10.13;5.93;;;18.80;99.90;;;;;;5047675;28;20429;-75
2023/05/23 04:58:56;;;;;;;8.18;5.57;;;18.70;99.90;;;;;;5045948;28;20595;-76
2023/05/23 05:01:24;;;;;;;7.85;5.05;;;18.70;99.90;;;;;;5042119;28;20685;-77
2023/05/23 05:03:51;;;;;;;9.23;4.93;;;18.60;99.90;;;;;;5042659;28;20729;-76
2023/05/23 05:06:17;;;;;;;8.75;5.70;;;18.70;99.90;;;;;;5038670;28;20176;-76
2023/05/23 05:08:43;;;;;;;7.18;5.07;;;18.60;99.90;;;;;;5046265;28;20226;-76
2023/05/23 05:11:09;;;;;;;11.70;6.07;;;18.60;99.90;;;;;;5044396;28;20290;-76
2023/05/23 05:13:35;;;;;;;8.93;5.43;;;18.60;99.90;;;;;;5033877;28;20195;-76
2023/05/23 05:16:01;;;;;;;8.60;5.70;;;18.60;99.90;;;;;;5055043;28;20215;-76
2023/05/23 05:18:27;;;;;;;7.43;5.40;;;18.60;99.90;;;;;;5051291;28;20565;-75
2023/05/23 05:20:53;;;;;;;11.80;6.35;;;18.60;99.90;;;;;;5051328;28;20164;-76
2023/05/23 05:23:19;;;;;;;7.75;5.00;;;18.70;99.90;;;;;;5030668;28;20206;-75
2023/05/23 05:25:45;;;;;;;7.03;5.10;;;18.80;99.90;;;;;;5048252;28;20619;-75
2023/05/23 05:28:11;;;;;;;7.78;5.10;;;18.80;99.90;;;;;;5048933;28;20200;-76
2023/05/23 05:30:37;;;;;;;8.25;5.30;;;18.90;99.90;;;;;;5048836;28;20207;-75
2023/05/23 05:33:04;;;;;;;7.35;5.93;;;18.90;99.90;;;;;;5044531;28;20183;-75
2023/05/23 05:35:37;;;;;;;9.82;5.30;;;18.90;99.90;;;;;;5031310;28;20203;-75
2023/05/23 05:38:03;;;;;;;10.20;5.82;;;18.90;99.90;;;;;;5046817;28;20219;-76
2023/05/23 05:40:32;;;;;;;8.85;5.30;;;18.80;99.90;;;;;;5042674;28;20576;-76
2023/05/23 05:42:57;;;;;;;8.77;5.55;;;18.80;99.90;;;;;;5027025;28;20677;-76
2023/05/23 05:45:23;;;;;;;11.20;6.13;;;18.80;99.90;;;;;;5044673;28;20196;-77
2023/05/23 05:47:49;;;;;;;10.68;5.95;;;18.80;99.90;;;;;;5042008;28;20219;-76
2023/05/23 05:50:14;;;;;;;10.40;5.25;;;18.80;99.90;;;;;;5044160;28;20199;-76
2023/05/23 05:52:41;;;;;;;11.07;5.65;;;18.60;99.90;;;;;;5042796;28;20199;-76
2023/05/23 05:55:11;;;;;;;8.82;5.60;;;18.60;99.90;;;;;;5050155;28;20219;-77
2023/05/23 05:57:38;;;;;;;12.85;5.50;;;18.60;99.90;;;;;;5050768;28;20295;-75
2023/05/23 06:00:13;;;;;;;11.55;6.18;;;18.70;99.90;;;;;;5034149;28;20180;-76
2023/05/23 06:02:41;;;;;;;10.25;5.97;;;18.70;99.90;;;;;;5049177;28;20211;-76
2023/05/23 06:05:15;;;;;;;12.27;6.38;;;18.70;99.90;;;;;;5047760;28;20932;-76
2023/05/23 06:07:46;;;;;;;6.88;5.35;;;18.70;99.90;;;;;;5046866;28;20219;-76
2023/05/23 06:10:12;;;;;;;10.75;4.95;;;18.70;99.90;;;;;;5033215;28;20715;-76
2023/05/23 06:12:38;;;;;;;13.02;5.53;;;18.80;99.90;;;;;;5046078;28;20592;-76
2023/05/23 06:15:05;;;;;;;10.15;5.65;;;18.90;99.90;;;;;;5049089;28;20180;-76
2023/05/23 06:17:31;;;;;;;14.45;5.97;;;19.00;99.90;;;;;;5045386;28;20211;-76
2023/05/23 06:19:56;;;;;;;10.07;5.82;;;19.00;99.90;;;;;;5042731;28;20241;-76
2023/05/23 06:22:22;;;;;;;8.82;5.22;;;19.00;99.90;;;;;;5044151;28;20294;-76
2023/05/23 06:24:47;;;;;;;11.73;5.65;;;19.10;99.90;;;;;;5044116;28;20228;-77
2023/05/23 06:27:13;;;;;;;7.70;5.20;;;19.00;99.90;;;;;;5043502;28;20196;-77
2023/05/23 06:29:39;;;;;;;7.55;5.60;;;19.10;99.90;;;;;;5040769;28;20605;-76
2023/05/23 06:32:05;;;;;;;8.23;5.47;;;19.10;99.90;;;;;;5049002;28;20242;-76
2023/05/23 06:34:31;;;;;;;10.90;5.38;;;19.10;99.90;;;;;;5049628;28;20203;-76
2023/05/23 06:36:57;;;;;;;7.45;4.95;;;19.10;99.90;;;;;;5048494;28;20226;-76
2023/05/23 06:39:22;;;;;;;12.13;5.57;;;19.20;99.90;;;;;;5031067;28;20634;-77
2023/05/23 06:41:48;;;;;;;13.38;6.05;;;19.30;99.90;;;;;;5029892;28;20190;-76
2023/05/23 06:44:14;;;;;;;10.75;6.57;;;19.40;99.90;;;;;;5028532;28;20242;-77
2023/05/23 06:46:44;;;;;;;11.52;5.80;;;19.50;99.90;;;;;;5046669;28;20268;-76
2023/05/23 06:49:09;;;;;;;8.07;5.82;;;19.60;99.90;;;;;;5045609;28;20211;-77
2023/05/23 06:51:35;;;;;;;10.85;6.15;;;19.60;99.90;;;;;;5039705;28;20561;-76
2023/05/23 06:54:01;;;;;;;15.10;6.40;;;19.60;99.90;;;;;;5047785;28;20184;-76
2023/05/23 06:56:26;;;;;;;11.02;6.55;;;19.80;99.90;;;;;;5043763;28;20215;-76
2023/05/23 06:58:52;;;;;;;11.68;6.10;;;19.80;99.90;;;;;;5041406;28;20236;-75
2023/05/23 07:01:18;;;;;;;10.95;5.75;;;19.60;99.90;;;;;;5047362;28;20221;-77
2023/05/23 07:03:44;;;;;;;16.92;7.10;;;19.80;99.90;;;;;;5043458;28;20227;-76
2023/05/23 07:06:10;;;;;;;19.02;6.32;;;19.60;99.90;;;;;;5041717;28;20175;-76
2023/05/23 07:08:36;;;;;;;15.90;6.50;;;19.90;99.90;;;;;;5040581;28;20212;-75
2023/05/23 07:11:02;;;;;;;12.43;6.60;;;20.00;99.90;;;;;;5048097;28;20239;-76
2023/05/23 07:13:28;;;;;;;12.30;6.82;;;20.00;99.90;;;;;;5049035;28;20207;-76
2023/05/23 07:15:54;;;;;;;15.05;6.32;;;20.00;99.90;;;;;;5052514;28;20217;-76
2023/05/23 07:18:20;;;;;;;13.35;6.78;;;20.10;99.90;;;;;;5048518;28;20249;-76
2023/05/23 07:20:46;;;;;;;12.30;6.35;;;20.20;99.90;;;;;;5030710;28;20203;-76
2023/05/23 07:23:11;;;;;;;9.20;6.65;;;20.60;99.90;;;;;;5046554;28;20207;-76
2023/05/23 07:25:39;;;;;;;14.63;7.03;;;20.60;99.90;;;;;;5046793;28;20203;-76
2023/05/23 07:28:05;;;;;;;14.23;7.38;;;20.70;99.90;;;;;;5043997;28;20223;-76
2023/05/23 07:30:30;;;;;;;12.75;7.50;;;20.70;99.90;;;;;;5045438;28;20215;-77
2023/05/23 07:32:56;;;;;;;13.02;6.38;;;20.50;99.90;;;;;;5027788;28;20176;-76
2023/05/23 07:35:25;;;;;;;14.00;6.25;;;20.70;99.90;;;;;;5044123;28;20200;-77
2023/05/23 07:37:54;;;;;;;11.20;6.28;;;20.80;99.90;;;;;;5041212;28;20354;-77
2023/05/23 07:40:21;;;;;;;9.77;6.13;;;20.80;99.90;;;;;;5025331;28;20606;-76
2023/05/23 07:42:47;;;;;;;9.98;5.30;;;20.90;99.90;;;;;;5043430;28;20214;-78
2023/05/23 07:45:13;;;;;;;10.10;5.88;;;20.80;99.90;;;;;;5041804;28;20203;-77
2023/05/23 07:47:40;;;;;;;11.73;5.72;;;20.60;99.90;;;;;;5042388;28;20184;-75
2023/05/23 07:50:06;;;;;;;9.07;5.93;;;20.80;99.90;;;;;;5038503;28;20207;-75
2023/05/23 07:52:32;;;;;;;9.82;5.85;;;20.60;99.90;;;;;;5048549;28;20195;-75
2023/05/23 07:54:58;;;;;;;7.68;5.78;;;20.60;99.90;;;;;;5047224;28;20208;-77
2023/05/23 07:57:25;;;;;;;10.23;5.28;;;20.80;99.90;;;;;;5032214;28;20199;-75
2023/05/23 07:59:52;;;;;;;7.47;5.70;;;21.10;99.90;;;;;;5046636;28;20164;-75
2023/05/23 08:02:18;;;;;;;6.07;4.97;;;21.70;99.90;;;;;;5030898;28;20333;-75
2023/05/23 08:04:44;;;;;;;8.38;5.68;;;21.80;99.90;;;;;;5045340;28;20215;-75
2023/05/23 08:07:10;;;;;;;13.82;6.43;;;21.90;99.90;;;;;;5025720;28;20231;-75
2023/05/23 08:09:37;;;;;;;10.38;5.90;;;22.00;99.90;;;;;;5038638;28;20690;-76
2023/05/23 08:12:02;;;;;;;8.57;5.43;;;22.80;99.90;;;;;;5042140;28;20235;-76
2023/05/23 08:14:28;;;;;;;7.55;5.47;;;23.80;99.90;;;;;;5024633;28;20200;-76
2023/05/23 08:16:54;;;;;;;6.68;5.18;;;24.20;99.90;;;;;;5043871;28;20212;-75
2023/05/23 08:19:19;;;;;;;9.25;5.95;;;24.60;99.90;;;;;;5042589;28;20638;-75
2023/05/23 08:21:46;;;;;;;7.45;5.13;;;24.80;99.90;;;;;;5034393;28;20204;-75
2023/05/23 08:24:11;;;;;;;5.25;4.75;;;25.00;99.90;;;;;;5044529;28;20211;-76
2023/05/23 08:26:40;;;;;;;8.05;5.05;;;24.90;99.90;;;;;;5035676;28;20196;-75
2023/05/23 08:29:08;;;;;;;11.20;5.82;;;24.70;99.90;;;;;;5051738;28;20210;-76
2023/05/23 08:31:34;;;;;;;6.75;5.38;;;25.60;99.90;;;;;;5052333;28;20242;-76
2023/05/23 08:34:00;;;;;;;10.13;5.30;;;24.70;99.90;;;;;;5031482;28;20216;-75
2023/05/23 08:36:26;;;;;;;7.18;5.45;;;24.40;99.90;;;;;;5032748;28;20261;-75
2023/05/23 08:38:52;;;;;;;9.18;5.40;;;24.30;99.90;;;;;;5049778;28;20168;-76
2023/05/23 08:41:22;;;;;;;10.40;5.85;;;24.70;99.90;;;;;;5028457;28;20694;-76
2023/05/23 08:43:48;;;;;;;8.18;5.72;;;24.60;99.90;;;;;;5047303;28;20223;-75
2023/05/23 08:46:15;;;;;;;12.95;6.35;;;24.50;99.90;;;;;;5047152;28;20219;-75
2023/05/23 08:48:42;;;;;;;9.43;6.03;;;24.50;99.90;;;;;;5047345;28;20747;-75
2023/05/23 08:51:13;;;;;;;12.07;5.88;;;24.50;99.90;;;;;;5045594;28;20172;-75
2023/05/23 08:53:45;;;;;;;9.85;6.07;;;24.80;99.90;;;;;;5045943;28;20226;-75
2023/05/23 08:56:11;;;;;;;10.10;5.75;;;25.20;99.90;;;;;;5044828;28;20208;-75
2023/05/23 08:58:39;;;;;;;8.02;5.70;;;24.10;99.90;;;;;;5043699;28;20557;-75
2023/05/23 09:01:08;;;;;;;8.27;5.88;;;24.40;99.90;;;;;;5047354;28;20212;-76
2023/05/23 09:03:36;;;;;;;10.20;6.43;;;24.40;99.90;;;;;;5043971;28;20220;-76
2023/05/23 09:06:04;;;;;;;6.70;6.00;;;24.10;99.90;;;;;;5040990;28;20187;-75
2023/05/23 09:08:30;;;;;;;9.35;5.72;;;23.90;99.90;;;;;;5052003;28;20302;-76
2023/05/23 09:10:56;;;;;;;13.68;7.47;;;24.30;99.90;;;;;;5050839;28;20660;-75
2023/05/23 09:13:22;;;;;;;8.82;6.28;;;23.40;99.90;;;;;;5033652;28;20980;-75
2023/05/23 09:16:09;;;;;;;9.93;6.13;;;23.10;99.90;;;;;;5050029;28;20208;-75
2023/05/23 09:18:42;;;;;;;7.38;5.97;;;22.90;99.90;;;;;;5045151;28;20732;-76
2023/05/23 09:21:09;;;;;;;7.13;5.63;;;23.70;99.90;;;;;;5043835;28;20188;-76
2023/05/23 09:23:38;;;;;;;9.57;6.53;;;24.20;99.90;;;;;;5047145;28;20220;-76
2023/05/23 09:26:05;;;;;;;11.40;6.32;;;24.70;99.90;;;;;;5047322;28;20236;-76
2023/05/23 09:28:32;;;;;;;8.65;6.07;;;24.30;99.90;;;;;;5033415;28;20243;-76
2023/05/23 09:31:03;;;;;;;10.48;6.38;;;23.90;99.90;;;;;;5045982;28;20423;-76
2023/05/23 09:33:47;;;;;;;9.32;6.68;;;23.00;99.90;;;;;;5044631;28;20171;-76
2023/05/23 09:36:13;;;;;;;10.55;6.13;;;23.30;99.90;;;;;;5043398;28;20173;-76
2023/05/23 09:38:40;;;;;;;8.48;6.70;;;23.00;99.90;;;;;;5043639;28;20183;-76
2023/05/23 09:41:06;;;;;;;9.90;7.75;;;22.80;99.90;;;;;;5043827;28;20236;-75
2023/05/23 09:43:32;;;;;;;11.20;7.72;;;22.40;99.90;;;;;;5043014;28;20210;-76
2023/05/23 09:46:08;;;;;;;12.77;8.57;;;22.50;99.90;;;;;;5051329;28;20212;-76
2023/05/23 09:48:34;;;;;;;21.55;15.18;;;22.30;99.90;;;;;;5048145;28;20230;-76
2023/05/23 09:51:08;;;;;;;13.32;7.20;;;22.60;99.90;;;;;;5040786;28;20187;-75
2023/05/23 09:53:34;;;;;;;11.45;8.13;;;22.70;99.90;;;;;;5046799;28;20235;-75
2023/05/23 09:56:02;;;;;;;9.45;6.82;;;22.80;99.90;;;;;;5040872;28;20254;-75
2023/05/23 09:58:29;;;;;;;15.18;8.35;;;22.80;99.90;;;;;;5033429;28;20242;-76
2023/05/23 10:00:55;;;;;;;14.07;7.97;;;22.60;99.90;;;;;;5047961;28;20208;-75
2023/05/23 10:03:30;;;;;;;11.82;7.70;;;22.70;99.90;;;;;;5046055;28;20271;-75
2023/05/23 10:06:00;;;;;;;9.00;8.10;;;22.50;99.90;;;;;;5044610;28;20911;-76
2023/05/23 10:08:43;;;;;;;11.93;9.23;;;22.20;99.90;;;;;;5045633;28;20767;-76
2023/05/23 10:11:12;;;;;;;9.05;8.20;;;21.80;99.90;;;;;;5024875;28;20290;-75
2023/05/23 10:13:41;;;;;;;8.85;7.68;;;21.80;99.90;;;;;;5043566;28;20211;-75
2023/05/23 10:16:14;;;;;;;11.65;8.77;;;21.70;99.90;;;;;;5047310;28;20212;-75
2023/05/23 10:18:43;;;;;;;10.10;8.63;;;21.80;99.90;;;;;;5043113;28;20235;-75
2023/05/23 10:21:14;;;;;;;9.13;8.15;;;21.80;99.90;;;;;;5040094;28;20659;-75
2023/05/23 10:23:41;;;;;;;9.73;8.73;;;22.20;99.90;;;;;;5048074;28;20227;-75
2023/05/23 10:26:07;;;;;;;9.10;8.13;;;22.20;99.90;;;;;;5039286;28;20204;-74
2023/05/23 10:28:33;;;;;;;10.27;9.25;;;22.50;99.90;;;;;;5050427;28;20256;-75
2023/05/23 10:30:59;;;;;;;11.95;9.40;;;22.20;99.90;;;;;;5048529;28;20208;-75
2023/05/23 10:33:35;;;;;;;10.20;9.02;;;22.20;99.90;;;;;;5023613;28;20266;-75
2023/05/23 10:36:07;;;;;;;13.40;10.57;;;21.90;99.90;;;;;;5034555;28;20671;-76
2023/05/23 10:39:11;;;;;;;12.13;9.88;;;21.60;99.90;;;;;;5026430;28;20204;-77
2023/05/23 10:41:51;;;;;;;13.18;11.75;;;21.50;99.90;;;;;;5028153;28;20203;-77
2023/05/23 10:44:30;;;;;;;12.07;10.88;;;21.20;99.90;;;;;;5046028;28;20246;-80
2023/05/23 10:47:02;;;;;;;12.88;11.57;;;21.40;99.90;;;;;;5045626;28;20519;-75
2023/05/23 10:49:54;;;;;;;13.02;11.55;;;21.70;99.90;;;;;;5046674;28;20208;-76
2023/05/23 10:52:25;;;;;;;13.73;11.30;;;21.90;99.90;;;;;;5044339;28;20201;-73
2023/05/23 10:54:55;;;;;;;12.45;9.90;;;21.80;99.90;;;;;;5047111;28;20204;-71
2023/05/23 10:57:30;;;;;;;15.13;11.75;;;21.70;99.90;;;;;;5031381;28;20707;-72
2023/05/23 10:59:56;;;;;;;15.30;12.75;;;21.60;99.90;;;;;;5029801;28;20673;-75
2023/05/23 11:02:26;;;;;;;21.90;13.88;;;21.50;99.90;;;;;;5048388;28;20199;-77
2023/05/23 11:05:18;;;;;;;17.98;14.27;;;21.30;99.90;;;;;;5049519;28;20210;-79
2023/05/23 11:07:44;;;;;;;16.88;15.10;;;21.60;99.90;;;;;;5048282;28;20207;-72
2023/05/23 11:10:12;;;;;;;20.73;15.80;;;21.80;99.90;;;;;;5048867;28;20212;-75
2023/05/23 11:12:41;;;;;;;22.63;16.90;;;21.60;99.90;;;;;;5047191;28;20200;-74
2023/05/23 11:15:27;;;;;;;17.23;14.75;;;21.40;99.90;;;;;;5048608;28;20176;-72
2023/05/23 11:17:55;;;;;;;18.98;13.95;;;21.60;99.90;;;;;;5045985;28;20218;-77
2023/05/23 11:20:27;;;;;;;17.52;13.77;;;21.80;99.90;;;;;;5046563;28;20753;-77
2023/05/23 11:23:01;;;;;;;20.02;16.17;;;21.60;99.90;;;;;;5039010;28;20230;-75
2023/05/23 11:25:43;;;;;;;20.42;15.77;;;20.90;99.90;;;;;;5039695;28;20439;-76
2023/05/23 11:28:12;;;;;;;21.20;17.45;;;21.10;99.90;;;;;;5046644;28;20285;-78
2023/05/23 11:30:39;;;;;;;17.92;15.27;;;21.10;99.90;;;;;;5028153;28;20211;-75
2023/05/23 11:33:08;;;;;;;19.90;16.15;;;21.40;99.90;;;;;;5025298;28;20184;-77
2023/05/23 11:35:36;;;;;;;18.80;15.65;;;21.30;99.90;;;;;;5026673;28;20732;-78
2023/05/23 11:38:04;;;;;;;23.00;17.00;;;21.40;99.90;;;;;;5037785;28;20222;-76
2023/05/23 11:40:34;;;;;;;21.70;16.95;;;21.40;99.90;;;;;;5031385;28;20266;-78
2023/05/23 11:43:02;;;;;;;20.90;17.30;;;21.20;99.90;;;;;;5027841;28;20212;-76
2023/05/23 11:45:29;;;;;;;21.48;17.25;;;21.40;99.90;;;;;;5045357;28;20617;-79
2023/05/23 11:47:54;;;;;;;20.13;16.88;;;21.50;99.90;;;;;;5028446;28;20221;-74
2023/05/23 11:50:20;;;;;;;20.05;17.00;;;21.50;99.90;;;;;;5031684;28;20212;-74
2023/05/23 11:52:50;;;;;;;20.55;17.63;;;21.30;99.90;;;;;;5050789;28;20251;-81
2023/05/23 11:55:18;;;;;;;23.05;18.27;;;21.30;99.90;;;;;;5055205;28;20226;-78
2023/05/23 11:57:43;;;;;;;21.88;16.67;;;21.00;99.90;;;;;;5051871;28;20658;-75
2023/05/23 12:00:10;;;;;;;26.00;19.05;;;21.00;99.90;;;;;;5048254;28;20246;-74
2023/05/23 12:02:46;;;;;;;20.83;16.92;;;21.10;99.90;;;;;;5054084;28;20234;-75
2023/05/23 12:05:13;;;;;;;20.08;17.23;;;21.10;99.90;;;;;;5036348;28;20207;-74
2023/05/23 12:07:48;;;;;;;23.02;18.60;;;20.80;99.90;;;;;;5032760;28;20223;-79
2023/05/23 12:10:21;;;;;;;24.15;17.23;;;20.90;99.90;;;;;;5036860;28;20789;-77
2023/05/23 12:12:47;;;;;;;21.67;17.88;;;20.90;99.90;;;;;;5054538;28;20221;-79
2023/05/23 12:15:13;;;;;;;21.60;17.23;;;20.60;99.90;;;;;;5037983;28;20179;-79
2023/05/23 12:17:46;;;;;;;20.75;17.48;;;20.50;99.90;;;;;;5056734;28;20211;-78
2023/05/23 12:20:13;;;;;;;23.02;17.77;;;20.10;99.90;;;;;;5056720;28;20207;-79
2023/05/23 12:22:38;;;;;;;21.05;17.02;;;20.30;99.90;;;;;;5037969;28;20207;-74
2023/05/23 12:25:08;;;;;;;24.05;18.23;;;20.60;99.90;;;;;;5034266;28;20314;-72
2023/05/23 12:27:35;;;;;;;22.20;17.67;;;20.50;99.90;;;;;;5051770;28;20226;-75
2023/05/23 12:30:09;;;;;;;19.98;17.10;;;20.30;99.90;;;;;;5052223;28;20176;-72
2023/05/23 12:32:45;;;;;;;20.83;18.30;;;20.20;99.90;;;;;;5049229;28;20682;-71
2023/05/23 12:35:13;;;;;;;21.48;18.40;;;20.40;99.90;;;;;;5044477;28;20211;-74
2023/05/23 12:37:40;;;;;;;21.75;16.40;;;20.50;99.90;;;;;;5049470;28;20290;-75
2023/05/23 12:40:18;;;;;;;20.48;16.00;;;20.30;99.90;;;;;;5044424;28;20219;-76
2023/05/23 12:42:55;;;;;;;20.75;15.45;;;20.20;99.90;;;;;;5032835;28;20577;-79
2023/05/23 12:45:23;;;;;;;19.38;14.35;;;20.40;99.90;;;;;;5050518;28;20580;-75